Time,TemperatureF,DewpointF,PressureIn,WindDirection,WindDirectionDegrees,WindSpeedMPH,WindSpeedGustMPH,Humidity,HourlyPrecipIn,Conditions,Clouds,dailyrainin,SolarRadiationWatts/m^2,SoftwareType,DateUTC
2013-01-29 00:01:00,47.9,47.9,29.02,North,353,12.7,12.7,100,0.02,RA,,0.00,0.0,WeatherDisplay:10.37,2013-01-29 00:01:00,
2013-01-29 00:06:00,48.0,48.0,29.02,SW,229,8.1,8.1,100,0.02,RA,,0.00,0.0,WeatherDisplay:10.37,2013-01-29 00:06:00,
2013-01-29 00:11:00,48.3,48.3,29.02,North,0,8.1,8.1,100,0.03,RA,,0.01,0.0,WeatherDisplay:10.37,2013-01-29 00:11:00,
2013-01-29 00:16:00,48.5,48.5,29.03,West,277,12.7,12.7,100,0.03,RA,,0.01,0.0,WeatherDisplay:10.37,2013-01-29 00:16:00,
2013-01-29 00:21:00,48.6,48.6,29.03,SW,224,8.1,8.1,100,0.03,CLR,,0.01,0.0,WeatherDisplay:10.37,2013-01-29 00:21:00,
2013-01-29 00:27:00,48.6,48.6,29.04,NNW,335,16.1,16.1,100,0.03,CLR,,0.01,0.0,WeatherDisplay:10.37,2013-01-29 00:27:00,
2013-01-29 00:32:00,48.6,48.6,29.05,North,352,8.1,8.1,100,0.03,CLR,,0.01,0.0,WeatherDisplay:10.37,2013-01-29 00:32:00,
2013-01-29 00:37:00,48.6,48.6,29.06,West,263,11.5,11.5,100,0.03,CLR,,0.01,0.0,WeatherDisplay:10.37,2013-01-29 00:37:00,
2013-01-29 00:42:00,48.6,48.6,29.07,WNW,282,13.8,13.8,100,0.03,CLR,,0.01,0.0,WeatherDisplay:10.37,2013-01-29 00:42:00,
2013-01-29 00:47:00,48.6,48.6,29.07,NW,322,12.7,12.7,100,0.02,CLR,,0.01,0.0,WeatherDisplay:10.37,2013-01-29 00:47:00,
2013-01-29 00:53:00,48.8,48.8,29.08,WNW,295,11.5,11.5,100,0.01,CLR,,0.01,0.0,WeatherDisplay:10.37,2013-01-29 00:53:00,
2013-01-29 00:58:00,48.9,48.9,29.08,WNW,296,16.1,16.1,100,0.01,CLR,,0.01,0.0,WeatherDisplay:10.37,2013-01-29 00:58:00,
2013-01-29 01:03:00,48.8,48.8,29.09,NNW,340,17.3,17.3,100,0.01,CLR,,0.01,0.0,WeatherDisplay:10.37,2013-01-29 01:03:00,
2013-01-29 01:08:00,48.5,48.5,29.10,NNW,343,9.2,9.2,100,0.01,CLR,,0.01,0.0,WeatherDisplay:10.37,2013-01-29 01:08:00,
2013-01-29 01:13:00,48.3,48.3,29.11,NW,305,18.4,18.4,100,0.00,CLR,,0.01,0.0,WeatherDisplay:10.37,2013-01-29 01:13:00,
2013-01-29 01:18:00,48.2,48.2,29.12,NW,316,10.0,10.0,100,0.00,CLR,,0.01,0.0,WeatherDisplay:10.37,2013-01-29 01:18:00,
2013-01-29 01:24:00,48.2,48.2,29.12,NW,316,11.5,11.5,100,0.00,CLR,,0.01,0.0,WeatherDisplay:10.37,2013-01-29 01:24:00,
2013-01-29 01:29:00,48.2,48.2,29.13,NW,325,9.2,9.2,100,0.00,CLR,,0.01,0.0,WeatherDisplay:10.37,2013-01-29 01:29:00,
2013-01-29 01:34:00,48.3,48.3,29.13,SW,234,19.6,19.6,100,0.00,CLR,,0.01,0.0,WeatherDisplay:10.37,2013-01-29 01:34:00,
2013-01-29 01:39:00,48.3,48.3,29.14,NW,316,10.0,10.0,100,0.00,CLR,,0.01,0.0,WeatherDisplay:10.37,2013-01-29 01:39:00,
2013-01-29 01:44:00,48.3,48.3,29.15,NW,312,17.3,17.3,100,0.00,CLR,,0.01,0.0,WeatherDisplay:10.37,2013-01-29 01:44:00,
2013-01-29 01:50:00,48.3,48.3,29.16,NNW,339,11.0,11.0,100,0.00,CLR,,0.01,0.0,WeatherDisplay:10.37,2013-01-29 01:50:00,
2013-01-29 01:55:00,48.2,48.2,29.17,NNW,344,11.5,11.5,100,0.00,CLR,,0.01,0.0,WeatherDisplay:10.37,2013-01-29 01:55:00,
2013-01-29 02:00:00,48.0,48.0,29.17,NNW,344,11.5,11.5,100,0.00,CLR,,0.01,0.0,WeatherDisplay:10.37,2013-01-29 02:00:00,
2013-01-29 02:05:00,47.9,47.9,29.17,North,357,8.1,8.1,100,0.00,CLR,,0.01,0.0,WeatherDisplay:10.37,2013-01-29 02:05:00,
2013-01-29 02:10:00,47.9,47.9,29.18,NNW,343,11.5,11.5,100,0.00,CLR,,0.01,0.0,WeatherDisplay:10.37,2013-01-29 02:10:00,
2013-01-29 02:16:00,47.9,47.9,29.19,NW,323,10.4,10.4,100,0.00,CLR,,0.01,0.0,WeatherDisplay:10.37,2013-01-29 02:16:00,
2013-01-29 02:21:00,47.7,47.7,29.20,NW,318,12.7,12.7,100,0.00,CLR,,0.01,0.0,WeatherDisplay:10.37,2013-01-29 02:21:00,
2013-01-29 02:26:00,47.7,47.7,29.20,NNW,332,6.9,6.9,100,0.00,CLR,,0.01,0.0,WeatherDisplay:10.37,2013-01-29 02:26:00,
2013-01-29 02:31:00,47.7,47.7,29.20,NW,304,4.6,4.9,100,0.00,CLR,,0.01,0.0,WeatherDisplay:10.37,2013-01-29 02:31:00,
2013-01-29 02:36:00,47.9,47.9,29.21,North,0,12.7,12.7,100,0.00,CLR,,0.01,0.0,WeatherDisplay:10.37,2013-01-29 02:36:00,
2013-01-29 02:42:00,47.9,47.9,29.22,NNW,333,6.9,6.9,100,0.00,CLR,,0.01,0.0,WeatherDisplay:10.37,2013-01-29 02:42:00,
2013-01-29 02:47:00,47.9,47.9,29.22,North,0,12.7,12.7,100,0.00,CLR,,0.01,0.0,WeatherDisplay:10.37,2013-01-29 02:47:00,
2013-01-29 02:52:00,47.9,47.9,29.22,NW,319,10.4,10.4,100,0.00,CLR,,0.01,0.0,WeatherDisplay:10.37,2013-01-29 02:52:00,
2013-01-29 02:57:00,47.7,47.7,29.22,NNW,339,5.8,5.8,100,0.00,CLR,,0.01,0.0,WeatherDisplay:10.37,2013-01-29 02:57:00,
2013-01-29 03:02:00,47.7,47.7,29.23,NW,309,10.4,10.4,100,0.00,CLR,,0.01,0.0,WeatherDisplay:10.37,2013-01-29 03:02:00,
2013-01-29 03:08:00,47.7,47.7,29.22,NNW,330,6.9,6.9,100,0.00,CLR,,0.01,0.0,WeatherDisplay:10.37,2013-01-29 03:08:00,
2013-01-29 03:13:00,47.6,47.6,29.23,North,359,8.1,8.1,100,0.00,CLR,,0.01,0.0,WeatherDisplay:10.37,2013-01-29 03:13:00,
2013-01-29 03:18:00,47.6,47.6,29.24,NW,320,3.5,3.5,100,0.00,CLR,,0.01,0.0,WeatherDisplay:10.37,2013-01-29 03:18:00,
2013-01-29 03:23:00,47.6,47.6,29.24,NW,313,6.9,6.9,100,0.00,CLR,,0.01,0.0,WeatherDisplay:10.37,2013-01-29 03:23:00,
2013-01-29 03:29:00,47.6,47.6,29.24,NW,308,10.4,10.4,100,0.00,CLR,,0.01,0.0,WeatherDisplay:10.37,2013-01-29 03:29:00,
2013-01-29 03:34:00,47.6,47.6,29.25,SW,233,8.1,8.1,100,0.00,CLR,,0.01,0.0,WeatherDisplay:10.37,2013-01-29 03:34:00,
2013-01-29 03:39:00,47.7,47.7,29.25,North,0,8.1,8.1,100,0.00,CLR,,0.01,0.0,WeatherDisplay:10.37,2013-01-29 03:39:00,
2013-01-29 03:44:00,47.7,47.7,29.26,NNW,342,6.9,6.9,100,0.00,CLR,,0.01,0.0,WeatherDisplay:10.37,2013-01-29 03:44:00,
2013-01-29 03:49:00,47.7,47.7,29.26,NNW,339,6.9,6.9,100,0.00,CLR,,0.01,0.0,WeatherDisplay:10.37,2013-01-29 03:49:00,
2013-01-29 03:54:00,47.9,47.9,29.26,NNW,330,6.9,6.9,100,0.00,CLR,,0.01,0.0,WeatherDisplay:10.37,2013-01-29 03:54:00,
2013-01-29 03:59:00,47.9,47.9,29.27,NW,318,10.4,10.4,100,0.00,CLR,,0.01,0.0,WeatherDisplay:10.37,2013-01-29 03:59:00,
2013-01-29 04:04:00,47.9,47.9,29.26,NW,313,12.7,12.7,100,0.00,CLR,,0.01,0.0,WeatherDisplay:10.37,2013-01-29 04:04:00,
2013-01-29 04:09:00,48.0,48.0,29.28,ESE,116,5.8,5.8,100,0.00,CLR,,0.01,0.0,WeatherDisplay:10.37,2013-01-29 04:09:00,
2013-01-29 04:14:00,48.0,48.0,29.28,NW,318,8.1,8.1,100,0.00,CLR,,0.01,0.0,WeatherDisplay:10.37,2013-01-29 04:14:00,
2013-01-29 04:20:00,47.9,47.9,29.28,NNW,329,10.4,10.4,100,0.00,CLR,,0.01,0.0,WeatherDisplay:10.37,2013-01-29 04:20:00,
2013-01-29 04:25:00,47.9,47.9,29.28,NNW,336,12.7,12.7,100,0.00,CLR,,0.01,0.0,WeatherDisplay:10.37,2013-01-29 04:25:00,
2013-01-29 04:30:00,47.9,47.9,29.28,NW,319,5.0,14.0,100,0.00,CLR,,0.01,0.0,WeatherDisplay:10.37,2013-01-29 04:30:00,
2013-01-29 04:35:00,48.0,48.0,29.28,North,356,13.0,13.0,100,0.00,CLR,,0.01,0.0,WeatherDisplay:10.37,2013-01-29 04:35:00,
2013-01-29 04:40:00,47.9,47.9,29.29,NW,312,16.1,16.1,100,0.00,CLR,,0.01,0.0,WeatherDisplay:10.37,2013-01-29 04:40:00,
2013-01-29 04:45:00,47.9,47.9,29.30,NNW,343,11.5,11.5,100,0.00,CLR,,0.01,0.0,WeatherDisplay:10.37,2013-01-29 04:45:00,
2013-01-29 04:50:00,48.0,48.0,29.30,NW,315,11.5,11.5,100,0.00,CLR,,0.01,0.0,WeatherDisplay:10.37,2013-01-29 04:50:00,
2013-01-29 04:55:00,47.9,47.9,29.30,NW,319,11.5,11.5,100,0.00,CLR,,0.01,0.0,WeatherDisplay:10.37,2013-01-29 04:55:00,
2013-01-29 05:00:00,47.9,47.9,29.30,WNW,291,5.8,5.8,100,0.00,CLR,,0.01,0.0,WeatherDisplay:10.37,2013-01-29 05:00:00,
2013-01-29 05:03:00,47.9,47.9,29.31,NW,312,11.5,11.5,100,0.00,CLR,,0.01,0.0,WeatherDisplay:10.37,2013-01-29 05:03:00,
2013-01-29 05:08:00,47.7,47.7,29.31,WNW,289,3.5,3.5,100,0.00,CLR,,0.01,0.0,WeatherDisplay:10.37,2013-01-29 05:08:00,
2013-01-29 05:13:00,47.7,47.7,29.31,WNW,284,8.1,8.1,100,0.00,CLR,,0.01,0.0,WeatherDisplay:10.37,2013-01-29 05:13:00,
2013-01-29 05:18:00,47.6,47.6,29.30,WNW,285,7.0,7.0,100,0.00,CLR,,0.01,0.0,WeatherDisplay:10.37,2013-01-29 05:18:00,
2013-01-29 05:23:00,47.6,47.6,29.30,North,352,10.4,10.4,100,0.00,CLR,,0.01,0.0,WeatherDisplay:10.37,2013-01-29 05:23:00,
2013-01-29 05:28:00,47.4,47.4,29.30,NNW,330,8.1,8.1,100,0.00,CLR,,0.01,0.0,WeatherDisplay:10.37,2013-01-29 05:28:00,
2013-01-29 05:33:00,47.4,47.4,29.30,WSW,237,5.8,5.8,100,0.00,CLR,,0.01,0.0,WeatherDisplay:10.37,2013-01-29 05:33:00,
2013-01-29 05:39:00,47.3,47.3,29.30,WNW,302,10.4,10.4,100,0.00,CLR,,0.01,0.0,WeatherDisplay:10.37,2013-01-29 05:39:00,
2013-01-29 05:44:00,47.1,47.1,29.31,NW,311,3.5,3.5,100,0.00,CLR,,0.01,0.0,WeatherDisplay:10.37,2013-01-29 05:44:00,
2013-01-29 05:49:00,47.0,47.0,29.31,NW,311,10.4,10.4,100,0.00,CLR,,0.01,0.0,WeatherDisplay:10.37,2013-01-29 05:49:00,
2013-01-29 05:54:00,47.0,47.0,29.32,NW,306,6.9,6.9,100,0.00,CLR,,0.01,0.0,WeatherDisplay:10.37,2013-01-29 05:54:00,
2013-01-29 05:59:00,46.8,46.8,29.33,NNW,337,5.0,5.0,100,0.00,CLR,,0.01,0.0,WeatherDisplay:10.37,2013-01-29 05:59:00,
2013-01-29 06:04:00,46.7,46.7,29.33,NNW,336,6.9,6.9,100,0.00,CLR,,0.01,0.0,WeatherDisplay:10.37,2013-01-29 06:04:00,
2013-01-29 06:09:00,46.7,46.7,29.33,NW,319,2.3,2.3,100,0.00,CLR,,0.01,0.0,WeatherDisplay:10.37,2013-01-29 06:09:00,
2013-01-29 06:14:00,46.7,46.7,29.33,SW,229,4.6,4.6,100,0.00,CLR,,0.01,0.0,WeatherDisplay:10.37,2013-01-29 06:14:00,
2013-01-29 06:19:00,46.7,46.7,29.33,NW,308,3.5,3.5,100,0.00,CLR,,0.01,0.0,WeatherDisplay:10.37,2013-01-29 06:19:00,
2013-01-29 06:24:00,46.7,46.7,29.33,WNW,299,6.9,6.9,100,0.00,CLR,,0.01,0.0,WeatherDisplay:10.37,2013-01-29 06:24:00,
2013-01-29 06:30:00,46.7,46.7,29.33,NNW,336,6.9,6.9,100,0.00,CLR,,0.01,0.0,WeatherDisplay:10.37,2013-01-29 06:30:00,
2013-01-29 06:35:00,46.8,46.8,29.32,NW,322,5.8,5.8,100,0.00,CLR,,0.01,0.0,WeatherDisplay:10.37,2013-01-29 06:35:00,
2013-01-29 06:40:00,46.8,46.8,29.32,NW,323,5.8,5.8,100,0.00,CLR,,0.01,0.0,WeatherDisplay:10.37,2013-01-29 06:40:00,
2013-01-29 06:45:00,47.0,47.0,29.32,NW,311,8.1,8.1,100,0.00,CLR,,0.01,0.0,WeatherDisplay:10.37,2013-01-29 06:45:00,
2013-01-29 06:50:00,47.0,47.0,29.33,WNW,287,10.4,10.4,100,0.00,CLR,,0.01,0.0,WeatherDisplay:10.37,2013-01-29 06:50:00,
2013-01-29 06:56:00,47.1,47.1,29.32,NW,326,6.0,6.0,100,0.00,CLR,,0.01,0.0,WeatherDisplay:10.37,2013-01-29 06:56:00,
2013-01-29 07:01:00,47.0,47.0,29.32,NNW,335,5.8,5.8,100,0.00,CLR,,0.01,0.0,WeatherDisplay:10.37,2013-01-29 07:01:00,
2013-01-29 07:06:00,47.1,47.1,29.31,North,354,8.1,8.1,100,0.00,CLR,,0.01,0.0,WeatherDisplay:10.37,2013-01-29 07:06:00,
2013-01-29 07:11:00,47.1,47.1,29.31,SW,236,6.9,6.9,100,0.00,CLR,,0.01,0.0,WeatherDisplay:10.37,2013-01-29 07:11:00,
2013-01-29 07:16:00,47.1,47.1,29.31,WSW,240,10.0,10.0,100,0.00,CLR,,0.01,0.0,WeatherDisplay:10.37,2013-01-29 07:16:00,
2013-01-29 07:21:00,47.1,47.1,29.31,North,359,5.8,6.5,100,0.00,CLR,,0.01,0.0,WeatherDisplay:10.37,2013-01-29 07:21:00,
2013-01-29 07:26:00,47.1,47.1,29.31,WNW,302,10.4,10.4,100,0.00,CLR,,0.01,0.0,WeatherDisplay:10.37,2013-01-29 07:26:00,
2013-01-29 07:32:00,47.1,47.1,29.31,SW,230,10.4,10.4,100,0.00,CLR,,0.01,0.0,WeatherDisplay:10.37,2013-01-29 07:32:00,
2013-01-29 07:37:00,47.0,47.0,29.31,North,0,5.8,5.8,100,0.00,CLR,,0.01,0.0,WeatherDisplay:10.37,2013-01-29 07:37:00,
2013-01-29 07:42:00,47.0,47.0,29.30,North,0,8.1,8.1,100,0.00,CLR,,0.01,0.0,WeatherDisplay:10.37,2013-01-29 07:42:00,
2013-01-29 07:47:00,46.8,46.8,29.31,North,0,10.0,10.0,100,0.00,CLR,,0.01,0.0,WeatherDisplay:10.37,2013-01-29 07:47:00,
2013-01-29 07:52:00,46.8,46.8,29.31,NNW,337,18.4,18.4,100,0.00,CLR,,0.01,0.0,WeatherDisplay:10.37,2013-01-29 07:52:00,
2013-01-29 07:57:00,46.8,46.8,29.31,North,356,10.4,10.4,100,0.00,CLR,,0.01,0.0,WeatherDisplay:10.37,2013-01-29 07:57:00,
2013-01-29 08:02:00,46.8,46.8,29.31,WSW,237,5.8,5.8,100,0.00,OVC,,0.01,0.0,WeatherDisplay:10.37,2013-01-29 08:02:00,
2013-01-29 08:07:00,46.7,46.7,29.30,North,0,12.7,12.7,100,0.00,OVC,,0.01,0.0,WeatherDisplay:10.37,2013-01-29 08:07:00,
2013-01-29 08:12:00,46.7,46.7,29.31,NNW,332,8.1,8.1,100,0.00,OVC,,0.01,0.0,WeatherDisplay:10.37,2013-01-29 08:12:00,
2013-01-29 08:18:00,46.7,46.7,29.31,SW,224,8.1,8.1,100,0.00,OVC,,0.01,0.0,WeatherDisplay:10.37,2013-01-29 08:18:00,
2013-01-29 08:23:00,46.5,46.5,29.31,WSW,251,11.5,11.5,100,0.00,OVC,,0.01,0.0,WeatherDisplay:10.37,2013-01-29 08:23:00,
2013-01-29 08:28:00,46.4,46.4,29.31,NW,318,11.5,11.5,100,0.00,OVC,,0.01,5.0,WeatherDisplay:10.37,2013-01-29 08:28:00,
2013-01-29 08:33:00,46.4,46.4,29.31,NNW,339,5.8,5.8,100,0.00,FEW,,0.01,5.0,WeatherDisplay:10.37,2013-01-29 08:33:00,
2013-01-29 08:38:00,46.4,46.4,29.32,North,357,6.9,6.9,100,0.00,BKN,,0.01,7.0,WeatherDisplay:10.37,2013-01-29 08:38:00,
2013-01-29 08:43:00,46.2,46.2,29.31,North,0,8.1,8.1,100,0.00,OVC,,0.01,7.0,WeatherDisplay:10.37,2013-01-29 08:43:00,
2013-01-29 08:48:00,46.2,46.2,29.31,NNW,343,6.9,6.9,100,0.00,OVC,,0.01,9.0,WeatherDisplay:10.37,2013-01-29 08:48:00,
2013-01-29 08:54:00,46.1,46.1,29.30,WSW,241,3.5,3.5,100,0.00,OVC,,0.01,12.0,WeatherDisplay:10.37,2013-01-29 08:54:00,
2013-01-29 08:59:00,46.1,46.1,29.30,North,354,5.0,5.0,100,0.00,OVC,,0.01,14.0,WeatherDisplay:10.37,2013-01-29 08:59:00,
2013-01-29 09:04:00,46.0,46.0,29.29,NNW,342,4.6,4.6,100,0.00,BKN,,0.01,23.0,WeatherDisplay:10.37,2013-01-29 09:04:00,
2013-01-29 09:09:00,46.1,46.1,29.29,North,0,4.6,4.6,100,0.00,OVC,,0.01,18.0,WeatherDisplay:10.37,2013-01-29 09:09:00,
2013-01-29 09:14:00,46.1,46.1,29.30,NNW,337,8.1,8.1,100,0.00,OVC,,0.01,18.0,WeatherDisplay:10.37,2013-01-29 09:14:00,
2013-01-29 09:19:00,46.1,46.1,29.30,NNW,344,11.5,11.5,100,0.00,OVC,,0.01,19.0,WeatherDisplay:10.37,2013-01-29 09:19:00,
2013-01-29 09:24:00,46.1,46.1,29.29,SW,230,5.8,5.8,100,0.00,OVC,,0.01,23.0,WeatherDisplay:10.37,2013-01-29 09:24:00,
2013-01-29 09:29:00,46.1,46.1,29.30,NNW,342,11.5,11.5,100,0.00,OVC,,0.01,23.0,WeatherDisplay:10.37,2013-01-29 09:29:00,
2013-01-29 09:34:00,46.1,46.1,29.29,North,349,5.8,5.8,100,0.00,OVC,,0.01,23.0,WeatherDisplay:10.37,2013-01-29 09:34:00,
2013-01-29 09:40:00,46.1,46.1,29.29,North,356,11.5,11.5,100,0.00,OVC,,0.01,33.0,WeatherDisplay:10.37,2013-01-29 09:40:00,
2013-01-29 09:45:00,46.1,46.1,29.29,NNW,328,3.0,16.0,100,0.00,OVC,,0.01,32.0,WeatherDisplay:10.37,2013-01-29 09:45:00,
2013-01-29 09:50:00,46.2,46.2,29.30,SW,227,6.9,6.9,100,0.00,OVC,,0.01,30.0,WeatherDisplay:10.37,2013-01-29 09:50:00,
2013-01-29 09:55:00,46.2,46.2,29.30,North,356,6.9,6.9,100,0.00,OVC,,0.01,40.0,WeatherDisplay:10.37,2013-01-29 09:55:00,
2013-01-29 10:00:00,46.2,46.2,29.29,North,0,8.1,8.1,100,0.00,OVC,,0.01,44.0,WeatherDisplay:10.37,2013-01-29 10:00:00,
2013-01-29 10:05:00,46.4,46.4,29.29,North,0,12.0,12.0,100,0.00,BKN,,0.01,48.0,WeatherDisplay:10.37,2013-01-29 10:05:00,
2013-01-29 10:10:00,46.4,46.4,29.28,North,0,8.1,8.1,100,0.00,OVC,,0.01,42.0,WeatherDisplay:10.37,2013-01-29 10:10:00,
2013-01-29 10:15:00,46.4,46.4,29.26,North,353,3.5,3.7,100,0.00,OVC,,0.01,44.0,WeatherDisplay:10.37,2013-01-29 10:15:00,
2013-01-29 10:20:00,46.5,46.5,29.25,NNW,347,5.8,5.8,100,0.00,OVC,,0.01,60.0,WeatherDisplay:10.37,2013-01-29 10:20:00,
2013-01-29 10:25:00,46.5,46.5,29.25,SW,226,13.8,13.8,100,0.00,SCT,,0.01,90.0,WeatherDisplay:10.37,2013-01-29 10:25:00,
2013-01-29 10:30:00,46.7,46.7,29.25,North,0,4.6,4.6,100,0.00,SCT,,0.01,90.0,WeatherDisplay:10.37,2013-01-29 10:30:00,
2013-01-29 10:35:00,46.8,46.8,29.25,NW,316,11.5,11.5,100,0.00,BKN,,0.01,81.0,WeatherDisplay:10.37,2013-01-29 10:35:00,
2013-01-29 10:40:00,46.8,46.8,29.24,West,277,8.1,8.1,100,0.00,BKN,,0.01,76.0,WeatherDisplay:10.37,2013-01-29 10:40:00,
2013-01-29 10:46:00,46.8,46.8,29.24,NNW,339,6.0,6.0,100,0.00,BKN,,0.01,76.0,WeatherDisplay:10.37,2013-01-29 10:46:00,
2013-01-29 10:51:00,47.0,47.0,29.24,NNW,336,12.7,12.7,100,0.00,BKN,,0.01,79.0,WeatherDisplay:10.37,2013-01-29 10:51:00,
2013-01-29 10:56:00,47.1,47.1,29.25,SSW,203,8.1,8.1,100,0.00,BKN,,0.01,69.0,WeatherDisplay:10.37,2013-01-29 10:56:00,
2013-01-29 11:01:00,47.1,47.1,29.25,North,350,17.3,17.3,100,0.00,OVC,,0.01,48.0,WeatherDisplay:10.37,2013-01-29 11:01:00,
2013-01-29 11:06:00,47.3,47.3,29.24,SSE,152,18.4,18.4,100,0.00,OVC,,0.01,53.0,WeatherDisplay:10.37,2013-01-29 11:06:00,
2013-01-29 11:11:00,47.3,47.3,29.23,SW,224,13.8,13.8,100,0.00,OVC,,0.01,49.0,WeatherDisplay:10.37,2013-01-29 11:11:00,
2013-01-29 11:16:00,47.4,47.4,29.22,North,0,8.1,8.1,100,0.00,OVC,,0.01,48.0,WeatherDisplay:10.37,2013-01-29 11:16:00,
2013-01-29 11:21:00,47.4,47.4,29.22,North,350,6.9,6.9,100,0.00,OVC,,0.01,53.0,WeatherDisplay:10.37,2013-01-29 11:21:00,
2013-01-29 11:27:00,47.4,47.4,29.22,North,354,6.9,6.9,100,0.00,OVC,,0.01,62.0,WeatherDisplay:10.37,2013-01-29 11:27:00,
2013-01-29 11:32:00,47.6,47.6,29.20,North,0,6.9,6.9,100,0.00,OVC,,0.01,58.0,WeatherDisplay:10.37,2013-01-29 11:32:00,
2013-01-29 11:37:00,47.6,47.6,29.20,North,353,8.1,8.1,100,0.00,OVC,,0.01,67.0,WeatherDisplay:10.37,2013-01-29 11:37:00,
2013-01-29 11:42:00,47.6,47.6,29.20,North,353,10.4,10.4,100,0.00,OVC,,0.01,63.0,WeatherDisplay:10.37,2013-01-29 11:42:00,
2013-01-29 11:47:00,47.6,47.6,29.19,North,359,13.8,13.8,100,0.00,OVC,,0.01,44.0,WeatherDisplay:10.37,2013-01-29 11:47:00,
2013-01-29 11:52:00,47.7,47.7,29.20,SSW,195,6.0,6.0,100,0.00,OVC,,0.01,37.0,WeatherDisplay:10.37,2013-01-29 11:52:00,
2013-01-29 11:57:00,47.6,47.6,29.19,SW,215,11.5,11.5,100,0.01,RA,,0.02,32.0,WeatherDisplay:10.37,2013-01-29 11:57:00,
2013-01-29 12:02:00,47.6,47.6,29.19,North,350,10.4,10.4,100,0.01,RA,,0.02,30.0,WeatherDisplay:10.37,2013-01-29 12:02:00,
2013-01-29 12:08:00,47.6,47.6,29.18,ESE,110,10.0,10.0,100,0.02,RA,,0.03,25.0,WeatherDisplay:10.37,2013-01-29 12:08:00,
2013-01-29 12:13:00,47.4,47.4,29.17,SSW,206,11.5,11.5,100,0.03,RA,,0.04,23.0,WeatherDisplay:10.37,2013-01-29 12:13:00,
2013-01-29 12:18:00,47.4,47.4,29.17,North,0,14.0,14.0,100,0.04,RA,,0.05,26.0,WeatherDisplay:10.37,2013-01-29 12:18:00,
2013-01-29 12:23:00,47.4,47.4,29.17,NNW,336,10.4,10.4,100,0.05,RA,,0.06,26.0,WeatherDisplay:10.37,2013-01-29 12:23:00,
2013-01-29 12:28:00,47.4,47.4,29.16,NNW,339,12.7,12.7,100,0.06,RA,,0.07,21.0,WeatherDisplay:10.37,2013-01-29 12:28:00,
2013-01-29 12:33:00,47.4,47.4,29.15,NNW,337,9.2,9.2,100,0.07,RA,,0.08,19.0,WeatherDisplay:10.37,2013-01-29 12:33:00,
2013-01-29 12:38:00,47.6,47.6,29.14,NNW,333,5.8,5.8,100,0.08,RA,,0.09,28.0,WeatherDisplay:10.37,2013-01-29 12:38:00,
2013-01-29 12:43:00,47.6,47.6,29.13,North,0,4.6,4.6,100,0.08,RA,,0.09,35.0,WeatherDisplay:10.37,2013-01-29 12:43:00,
2013-01-29 12:48:00,47.7,47.7,29.12,SSW,202,6.9,6.9,100,0.09,RA,,0.10,46.0,WeatherDisplay:10.37,2013-01-29 12:48:00,
2013-01-29 12:53:00,47.7,47.7,29.11,North,0,7.0,7.0,100,0.10,RA,,0.11,42.0,WeatherDisplay:10.37,2013-01-29 12:53:00,
2013-01-29 12:58:00,48.0,48.0,29.11,NNW,342,9.0,9.0,100,0.09,RA,,0.11,28.0,WeatherDisplay:10.37,2013-01-29 12:58:00,
2013-01-29 13:04:00,48.2,48.2,29.11,North,354,10.4,10.4,100,0.10,RA,,0.12,39.0,WeatherDisplay:10.37,2013-01-29 13:04:00,
2013-01-29 13:09:00,48.3,48.3,29.11,NNW,339,11.5,11.5,100,0.10,RA,,0.13,65.0,WeatherDisplay:10.37,2013-01-29 13:09:00,
2013-01-29 13:14:00,48.6,48.6,29.10,North,0,12.7,12.7,100,0.09,RA,,0.13,76.0,WeatherDisplay:10.37,2013-01-29 13:14:00,
2013-01-29 13:19:00,48.9,48.9,29.09,NNW,333,16.1,16.1,100,0.09,RA,,0.14,69.0,WeatherDisplay:10.37,2013-01-29 13:19:00,
2013-01-29 13:24:00,49.1,49.1,29.08,NNW,337,13.8,13.8,100,0.09,RA,,0.15,83.0,WeatherDisplay:10.37,2013-01-29 13:24:00,
2013-01-29 13:29:00,49.1,49.1,29.08,NNW,340,12.7,12.7,100,0.09,RA,,0.16,49.0,WeatherDisplay:10.37,2013-01-29 13:29:00,
2013-01-29 13:34:00,49.2,49.2,29.08,SSW,202,11.5,11.5,100,0.09,RA,,0.17,35.0,WeatherDisplay:10.37,2013-01-29 13:34:00,
2013-01-29 13:40:00,49.4,49.4,29.06,NNW,339,11.5,11.5,100,0.08,RA,,0.17,18.0,WeatherDisplay:10.37,2013-01-29 13:40:00,
2013-01-29 13:45:00,49.5,49.5,29.06,South,175,11.0,11.0,100,0.08,OVC,,0.17,18.0,WeatherDisplay:10.37,2013-01-29 13:45:00,
2013-01-29 13:50:00,49.5,49.5,29.05,North,354,13.8,13.8,100,0.08,RA,,0.19,35.0,WeatherDisplay:10.37,2013-01-29 13:50:00,
2013-01-29 13:55:00,49.8,49.8,29.05,NNW,337,11.5,11.5,100,0.10,RA,,0.21,46.0,WeatherDisplay:10.37,2013-01-29 13:55:00,
2013-01-29 14:00:00,49.9,49.9,29.04,SW,232,17.3,17.3,100,0.10,RA,,0.22,28.0,WeatherDisplay:10.37,2013-01-29 14:00:00,
2013-01-29 14:05:00,50.1,50.1,29.04,North,350,17.3,17.3,100,0.10,RA,,0.22,18.0,WeatherDisplay:10.37,2013-01-29 14:05:00,
2013-01-29 14:10:00,50.1,50.1,29.04,NW,315,17.3,17.3,100,0.10,RA,,0.23,18.0,WeatherDisplay:10.37,2013-01-29 14:10:00,
2013-01-29 14:15:00,50.2,50.2,29.03,North,0,12.0,12.0,100,0.11,RA,,0.24,19.0,WeatherDisplay:10.37,2013-01-29 14:15:00,
2013-01-29 14:20:00,50.5,50.5,29.03,NNW,339,17.3,17.3,100,0.10,RA,,0.26,19.0,WeatherDisplay:10.37,2013-01-29 14:20:00,
2013-01-29 14:26:00,51.0,51.0,29.03,SW,226,16.1,16.1,100,0.13,RA,,0.28,18.0,WeatherDisplay:10.37,2013-01-29 14:26:00,
2013-01-29 14:31:00,51.3,51.3,29.02,NNW,335,19.6,19.6,100,0.14,RA,,0.30,14.0,WeatherDisplay:10.37,2013-01-29 14:31:00,
2013-01-29 14:36:00,51.4,51.4,29.02,South,174,12.7,12.7,100,0.13,RA,,0.30,7.0,WeatherDisplay:10.37,2013-01-29 14:36:00,
2013-01-29 14:41:00,51.7,51.7,29.01,NNW,328,16.1,16.1,100,0.13,OVC,,0.30,7.0,WeatherDisplay:10.37,2013-01-29 14:41:00,
2013-01-29 14:46:00,52.0,52.0,29.00,NW,326,11.5,11.5,100,0.13,OVC,,0.30,7.0,WeatherDisplay:10.37,2013-01-29 14:46:00,
2013-01-29 14:51:00,52.5,52.5,28.99,NNW,332,16.1,16.1,100,0.11,OVC,,0.30,9.0,WeatherDisplay:10.37,2013-01-29 14:51:00,
2013-01-29 14:57:00,52.8,52.8,28.99,NNW,344,19.6,19.6,100,0.09,OVC,,0.30,9.0,WeatherDisplay:10.37,2013-01-29 14:57:00,
2013-01-29 15:02:00,52.9,52.9,28.99,ESE,109,8.1,8.1,100,0.08,OVC,,0.30,9.0,WeatherDisplay:10.37,2013-01-29 15:02:00,
2013-01-29 15:07:00,53.2,53.2,28.99,North,349,11.5,11.5,100,0.07,OVC,,0.30,11.0,WeatherDisplay:10.37,2013-01-29 15:07:00,
2013-01-29 15:12:00,53.3,53.3,28.98,NNW,332,17.3,17.3,100,0.07,OVC,,0.30,9.0,WeatherDisplay:10.37,2013-01-29 15:12:00,
2013-01-29 15:17:00,53.5,53.5,28.97,SW,215,11.5,11.5,100,0.06,OVC,,0.30,11.0,WeatherDisplay:10.37,2013-01-29 15:17:00,
2013-01-29 15:22:00,53.6,53.6,28.97,North,356,24.2,24.2,100,0.03,OVC,,0.30,9.0,WeatherDisplay:10.37,2013-01-29 15:22:00,
2013-01-29 15:28:00,53.8,53.8,28.96,NNW,340,18.0,18.0,100,0.02,RA,,0.31,12.0,WeatherDisplay:10.37,2013-01-29 15:28:00,
2013-01-29 15:33:00,53.9,53.9,28.96,SW,233,17.3,17.3,100,0.01,RA,,0.31,11.0,WeatherDisplay:10.37,2013-01-29 15:33:00,
2013-01-29 15:38:00,54.2,54.2,28.95,SW,223,17.3,17.3,100,0.01,OVC,,0.31,9.0,WeatherDisplay:10.37,2013-01-29 15:38:00,
2013-01-29 15:43:00,54.4,54.4,28.94,NNW,332,25.3,25.3,100,0.01,OVC,,0.31,7.0,WeatherDisplay:10.37,2013-01-29 15:43:00,
2013-01-29 15:48:00,54.5,54.5,28.95,SSW,213,19.6,19.6,100,0.01,OVC,,0.31,7.0,WeatherDisplay:10.37,2013-01-29 15:48:00,
2013-01-29 15:54:00,54.7,54.7,28.94,NW,325,12.7,12.7,100,0.01,OVC,,0.31,5.0,WeatherDisplay:10.37,2013-01-29 15:54:00,
2013-01-29 15:59:00,54.8,54.8,28.94,NNW,330,16.1,16.1,100,0.02,RA,,0.32,7.0,WeatherDisplay:10.37,2013-01-29 15:59:00,
2013-01-29 16:04:00,54.8,54.8,28.94,NNW,339,24.2,24.2,100,0.02,RA,,0.32,5.0,WeatherDisplay:10.37,2013-01-29 16:04:00,
2013-01-29 16:09:00,54.8,54.8,28.93,NNW,340,24.0,24.0,100,0.03,RA,,0.33,7.0,WeatherDisplay:10.37,2013-01-29 16:09:00,
2013-01-29 16:14:00,55.0,55.0,28.94,SSW,212,18.4,18.4,100,0.05,RA,,0.35,5.0,WeatherDisplay:10.37,2013-01-29 16:14:00,
2013-01-29 16:19:00,55.0,55.0,28.95,SW,236,18.4,18.4,100,0.07,RA,,0.37,5.0,WeatherDisplay:10.37,2013-01-29 16:19:00,
2013-01-29 16:25:00,55.1,55.1,28.95,SE,144,28.8,28.8,100,0.08,RA,,0.38,0.0,WeatherDisplay:10.37,2013-01-29 16:25:00,
2013-01-29 16:30:00,55.1,55.1,28.96,North,357,24.2,24.2,100,0.08,RA,,0.39,0.0,WeatherDisplay:10.37,2013-01-29 16:30:00,
2013-01-29 16:35:00,54.8,54.8,28.97,North,349,13.8,13.8,100,0.09,RA,,0.40,0.0,WeatherDisplay:10.37,2013-01-29 16:35:00,
2013-01-29 16:40:00,54.1,54.1,28.96,West,268,11.5,11.5,100,0.09,RA,,0.40,5.0,WeatherDisplay:10.37,2013-01-29 16:40:00,
2013-01-29 16:45:00,53.6,53.6,28.96,NNW,346,13.8,13.8,100,0.09,OVC,,0.40,12.0,WeatherDisplay:10.37,2013-01-29 16:45:00,
2013-01-29 16:50:00,53.2,53.2,28.97,NW,311,12.7,12.7,100,0.09,OVC,,0.40,9.0,WeatherDisplay:10.37,2013-01-29 16:50:00,
2013-01-29 16:56:00,52.9,52.9,28.98,NW,311,13.8,13.8,100,0.08,OVC,,0.40,5.0,WeatherDisplay:10.37,2013-01-29 16:56:00,
2013-01-29 17:01:00,52.8,52.8,28.99,WNW,292,12.7,12.7,100,0.08,CLR,,0.40,0.0,WeatherDisplay:10.37,2013-01-29 17:01:00,
2013-01-29 17:06:00,52.5,52.5,28.99,ENE,76,8.1,8.1,100,0.08,CLR,,0.40,0.0,WeatherDisplay:10.37,2013-01-29 17:06:00,
2013-01-29 17:11:00,52.0,52.0,28.99,WNW,295,9.2,9.2,100,0.07,CLR,,0.40,0.0,WeatherDisplay:10.37,2013-01-29 17:11:00,
2013-01-29 17:16:00,51.1,51.1,28.99,WNW,299,12.7,12.7,100,0.04,CLR,,0.40,0.0,WeatherDisplay:10.37,2013-01-29 17:16:00,
2013-01-29 17:21:00,50.7,50.7,29.00,NNW,337,5.8,5.8,100,0.03,CLR,,0.40,0.0,WeatherDisplay:10.37,2013-01-29 17:21:00,
2013-01-29 17:26:00,50.7,50.7,29.00,North,349,12.0,12.0,100,0.01,CLR,,0.40,0.0,WeatherDisplay:10.37,2013-01-29 17:26:00,
2013-01-29 17:31:00,50.5,50.5,29.00,SW,227,16.1,16.1,100,0.01,CLR,,0.40,0.0,WeatherDisplay:10.37,2013-01-29 17:31:00,
2013-01-29 17:37:00,50.5,50.5,29.00,North,0,13.8,13.8,100,0.00,CLR,,0.40,0.0,WeatherDisplay:10.37,2013-01-29 17:37:00,
2013-01-29 17:42:00,50.5,50.5,29.01,North,0,12.7,12.7,100,0.00,CLR,,0.40,0.0,WeatherDisplay:10.37,2013-01-29 17:42:00,
2013-01-29 17:47:00,50.5,50.5,29.00,WNW,284,11.0,11.0,100,0.00,CLR,,0.40,0.0,WeatherDisplay:10.37,2013-01-29 17:47:00,
2013-01-29 17:52:00,50.5,50.2,29.00,NNW,339,10.0,10.0,99,0.00,CLR,,0.40,0.0,WeatherDisplay:10.37,2013-01-29 17:52:00,
2013-01-29 17:57:00,50.4,49.9,29.00,NNW,340,8.1,8.1,98,0.00,CLR,,0.40,0.0,WeatherDisplay:10.37,2013-01-29 17:57:00,
2013-01-29 18:02:00,50.2,49.4,29.00,NNW,333,13.8,13.8,97,0.00,CLR,,0.40,0.0,WeatherDisplay:10.37,2013-01-29 18:02:00,
2013-01-29 18:08:00,50.2,49.1,29.01,NNW,343,11.5,11.5,96,0.00,CLR,,0.40,0.0,WeatherDisplay:10.37,2013-01-29 18:08:00,
2013-01-29 18:13:00,50.4,49.0,29.01,NNW,337,11.5,11.5,95,0.01,RA,,0.41,0.0,WeatherDisplay:10.37,2013-01-29 18:13:00,
2013-01-29 18:18:00,50.4,49.3,29.02,NNW,347,13.8,13.8,96,0.01,RA,,0.41,0.0,WeatherDisplay:10.37,2013-01-29 18:18:00,
2013-01-29 18:23:00,50.2,49.1,29.02,North,353,6.9,6.9,96,0.01,CLR,,0.41,0.0,WeatherDisplay:10.37,2013-01-29 18:23:00,
2013-01-29 18:28:00,49.9,48.8,29.01,WNW,302,11.5,11.5,96,0.01,CLR,,0.41,0.0,WeatherDisplay:10.37,2013-01-29 18:28:00,
2013-01-29 18:33:00,49.6,47.9,29.03,NNW,337,19.6,19.6,94,0.01,CLR,,0.41,0.0,WeatherDisplay:10.37,2013-01-29 18:33:00,
2013-01-29 18:38:00,49.5,47.3,29.02,ESE,106,11.5,11.5,92,0.01,CLR,,0.41,0.0,WeatherDisplay:10.37,2013-01-29 18:38:00,
2013-01-29 18:43:00,49.5,47.3,29.02,North,0,8.1,8.1,92,0.01,CLR,,0.41,0.0,WeatherDisplay:10.37,2013-01-29 18:43:00,
2013-01-29 18:49:00,49.4,47.2,29.03,North,0,12.7,12.7,92,0.01,CLR,,0.41,0.0,WeatherDisplay:10.37,2013-01-29 18:49:00,
2013-01-29 18:54:00,49.2,47.0,29.03,NW,311,13.8,13.8,92,0.01,CLR,,0.41,0.0,WeatherDisplay:10.37,2013-01-29 18:54:00,
2013-01-29 18:59:00,49.1,46.6,29.03,South,189,11.5,11.5,91,0.01,CLR,,0.41,0.0,WeatherDisplay:10.37,2013-01-29 18:59:00,
2013-01-29 19:04:00,49.1,46.3,29.03,NNW,342,18.4,18.4,90,0.01,CLR,,0.41,0.0,WeatherDisplay:10.37,2013-01-29 19:04:00,
2013-01-29 19:09:00,48.9,45.8,29.03,North,0,24.2,24.2,89,0.01,CLR,,0.41,0.0,WeatherDisplay:10.37,2013-01-29 19:09:00,
2013-01-29 19:14:00,48.9,45.8,29.03,NNW,342,13.8,13.8,89,0.00,CLR,,0.41,0.0,WeatherDisplay:10.37,2013-01-29 19:14:00,
2013-01-29 19:19:00,48.9,45.8,29.03,North,354,15.0,15.0,89,0.00,CLR,,0.41,0.0,WeatherDisplay:10.37,2013-01-29 19:19:00,
2013-01-29 19:24:00,48.8,46.0,29.03,WSW,239,16.1,16.1,90,0.00,CLR,,0.41,0.0,WeatherDisplay:10.37,2013-01-29 19:24:00,
2013-01-29 19:29:00,48.6,46.1,29.03,NNW,340,12.0,12.0,91,0.00,CLR,,0.41,0.0,WeatherDisplay:10.37,2013-01-29 19:29:00,
2013-01-29 19:35:00,48.5,46.0,29.03,WSW,239,19.6,19.6,91,0.00,CLR,,0.41,0.0,WeatherDisplay:10.37,2013-01-29 19:35:00,
2013-01-29 19:40:00,48.5,46.0,29.04,North,0,4.6,4.6,91,0.00,CLR,,0.41,0.0,WeatherDisplay:10.37,2013-01-29 19:40:00,
2013-01-29 19:45:00,48.5,46.0,29.04,NNW,339,6.0,21.0,91,0.00,CLR,,0.41,0.0,WeatherDisplay:10.37,2013-01-29 19:45:00,
2013-01-29 19:50:00,48.3,46.1,29.04,NNW,344,13.8,13.8,92,0.00,CLR,,0.41,0.0,WeatherDisplay:10.37,2013-01-29 19:50:00,
2013-01-29 19:55:00,48.2,46.0,29.04,WNW,284,8.1,8.1,92,0.00,CLR,,0.41,0.0,WeatherDisplay:10.37,2013-01-29 19:55:00,
2013-01-29 19:57:00,48.2,46.0,29.04,North,0,25.3,25.3,92,0.00,CLR,,0.41,0.0,WeatherDisplay:10.37,2013-01-29 19:57:00,
2013-01-29 20:02:00,48.2,46.0,29.05,North,352,18.4,18.4,92,0.00,CLR,,0.41,0.0,WeatherDisplay:10.37,2013-01-29 20:02:00,
2013-01-29 20:07:00,48.2,46.0,29.05,NNW,342,20.7,20.7,92,0.00,CLR,,0.41,0.0,WeatherDisplay:10.37,2013-01-29 20:07:00,
2013-01-29 20:12:00,48.2,46.0,29.05,WSW,241,11.5,11.5,92,0.00,CLR,,0.41,0.0,WeatherDisplay:10.37,2013-01-29 20:12:00,
2013-01-29 20:18:00,48.2,46.3,29.06,North,354,19.6,19.6,93,0.00,CLR,,0.41,0.0,WeatherDisplay:10.37,2013-01-29 20:18:00,
2013-01-29 20:23:00,48.2,46.3,29.05,SW,226,20.7,20.7,93,0.00,CLR,,0.41,0.0,WeatherDisplay:10.37,2013-01-29 20:23:00,
2013-01-29 20:28:00,48.0,46.1,29.05,South,175,26.5,26.5,93,0.00,CLR,,0.41,0.0,WeatherDisplay:10.37,2013-01-29 20:28:00,
2013-01-29 20:33:00,47.9,46.0,29.06,NW,319,11.5,11.5,93,0.00,CLR,,0.41,0.0,WeatherDisplay:10.37,2013-01-29 20:33:00,
2013-01-29 20:38:00,47.9,46.0,29.05,SW,219,19.6,19.6,93,0.00,CLR,,0.41,0.0,WeatherDisplay:10.37,2013-01-29 20:38:00,
2013-01-29 20:43:00,47.7,45.8,29.06,SW,223,16.1,16.1,93,0.00,CLR,,0.41,0.0,WeatherDisplay:10.37,2013-01-29 20:43:00,
2013-01-29 20:49:00,47.7,45.8,29.06,NW,319,14.0,14.0,93,0.00,CLR,,0.41,0.0,WeatherDisplay:10.37,2013-01-29 20:49:00,
2013-01-29 20:54:00,47.7,45.8,29.07,ESE,104,18.4,18.4,93,0.00,CLR,,0.41,0.0,WeatherDisplay:10.37,2013-01-29 20:54:00,
2013-01-29 20:59:00,47.7,45.8,29.07,WSW,239,11.5,11.5,93,0.00,CLR,,0.41,0.0,WeatherDisplay:10.37,2013-01-29 20:59:00,
2013-01-29 21:04:00,47.7,45.8,29.07,SE,141,11.5,11.5,93,0.00,CLR,,0.41,0.0,WeatherDisplay:10.37,2013-01-29 21:04:00,
2013-01-29 21:09:00,47.6,45.7,29.07,North,352,13.8,13.8,93,0.00,CLR,,0.41,0.0,WeatherDisplay:10.37,2013-01-29 21:09:00,
2013-01-29 21:14:00,47.4,45.8,29.07,South,185,11.5,11.5,94,0.00,CLR,,0.41,0.0,WeatherDisplay:10.37,2013-01-29 21:14:00,
2013-01-29 21:19:00,47.3,45.7,29.07,North,0,13.8,13.8,94,0.00,CLR,,0.41,0.0,WeatherDisplay:10.37,2013-01-29 21:19:00,
2013-01-29 21:24:00,47.3,45.7,29.08,NW,311,8.1,8.1,94,0.00,CLR,,0.41,0.0,WeatherDisplay:10.37,2013-01-29 21:24:00,
2013-01-29 21:29:00,47.1,45.5,29.08,NW,308,16.1,16.1,94,0.00,CLR,,0.41,0.0,WeatherDisplay:10.37,2013-01-29 21:29:00,
2013-01-29 21:35:00,47.1,45.5,29.08,WNW,294,18.4,18.4,94,0.00,CLR,,0.41,0.0,WeatherDisplay:10.37,2013-01-29 21:35:00,
2013-01-29 21:40:00,47.1,45.5,29.08,NNW,339,19.6,19.6,94,0.00,CLR,,0.41,0.0,WeatherDisplay:10.37,2013-01-29 21:40:00,
2013-01-29 21:45:00,47.1,45.5,29.08,NW,305,5.0,20.0,94,0.00,CLR,,0.41,0.0,WeatherDisplay:10.37,2013-01-29 21:45:00,
2013-01-29 21:50:00,47.0,45.4,29.09,North,359,17.3,17.3,94,0.00,CLR,,0.41,0.0,WeatherDisplay:10.37,2013-01-29 21:50:00,
2013-01-29 21:55:00,47.1,45.5,29.09,SSW,192,19.6,19.6,94,0.00,CLR,,0.41,0.0,WeatherDisplay:10.37,2013-01-29 21:55:00,
2013-01-29 22:00:00,47.0,45.4,29.09,WNW,301,11.5,11.5,94,0.00,CLR,,0.41,0.0,WeatherDisplay:10.37,2013-01-29 22:00:00,
2013-01-29 22:05:00,47.0,45.1,29.09,North,359,11.5,11.5,93,0.00,CLR,,0.41,0.0,WeatherDisplay:10.37,2013-01-29 22:05:00,
2013-01-29 22:10:00,47.0,45.1,29.09,NW,325,17.3,17.3,93,0.00,CLR,,0.41,0.0,WeatherDisplay:10.37,2013-01-29 22:10:00,
2013-01-29 22:16:00,47.0,45.1,29.09,NW,325,12.7,12.7,93,0.00,CLR,,0.41,0.0,WeatherDisplay:10.37,2013-01-29 22:16:00,
2013-01-29 22:21:00,47.0,45.1,29.09,North,350,21.9,21.9,93,0.00,CLR,,0.41,0.0,WeatherDisplay:10.37,2013-01-29 22:21:00,
2013-01-29 22:26:00,46.8,44.9,29.09,North,0,11.0,11.0,93,0.00,CLR,,0.41,0.0,WeatherDisplay:10.37,2013-01-29 22:26:00,
2013-01-29 22:31:00,46.7,44.8,29.09,South,174,18.4,18.4,93,0.00,CLR,,0.41,0.0,WeatherDisplay:10.37,2013-01-29 22:31:00,
2013-01-29 22:36:00,46.7,44.8,29.10,NNW,340,10.4,10.4,93,0.00,CLR,,0.41,0.0,WeatherDisplay:10.37,2013-01-29 22:36:00,
2013-01-29 22:42:00,46.5,44.6,29.10,NNW,339,8.0,8.0,93,0.00,CLR,,0.41,0.0,WeatherDisplay:10.37,2013-01-29 22:42:00,
2013-01-29 22:47:00,46.4,44.5,29.10,NNW,339,9.2,9.2,93,0.00,CLR,,0.41,0.0,WeatherDisplay:10.37,2013-01-29 22:47:00,
2013-01-29 22:52:00,46.4,44.8,29.10,WNW,302,3.5,3.5,94,0.00,CLR,,0.41,0.0,WeatherDisplay:10.37,2013-01-29 22:52:00,
2013-01-29 22:57:00,46.4,44.8,29.11,NW,313,11.5,11.5,94,0.00,CLR,,0.41,0.0,WeatherDisplay:10.37,2013-01-29 22:57:00,
2013-01-29 23:02:00,46.5,45.1,29.11,NW,325,11.5,11.5,95,0.00,CLR,,0.41,0.0,WeatherDisplay:10.37,2013-01-29 23:02:00,
2013-01-29 23:07:00,46.4,45.0,29.11,North,0,11.5,11.5,95,0.00,CLR,,0.41,0.0,WeatherDisplay:10.37,2013-01-29 23:07:00,
2013-01-29 23:13:00,46.4,45.0,29.11,NW,316,8.1,8.1,95,0.00,CLR,,0.41,0.0,WeatherDisplay:10.37,2013-01-29 23:13:00,
2013-01-29 23:18:00,46.4,45.0,29.11,NW,316,10.4,10.4,95,0.00,CLR,,0.41,0.0,WeatherDisplay:10.37,2013-01-29 23:18:00,
2013-01-29 23:23:00,46.4,45.0,29.11,SSE,154,6.9,6.9,95,0.00,CLR,,0.41,0.0,WeatherDisplay:10.37,2013-01-29 23:23:00,
2013-01-29 23:28:00,46.4,44.8,29.12,NW,320,18.4,18.4,94,0.00,CLR,,0.41,0.0,WeatherDisplay:10.37,2013-01-29 23:28:00,
2013-01-29 23:33:00,46.2,44.6,29.12,North,353,16.1,16.1,94,0.00,CLR,,0.41,0.0,WeatherDisplay:10.37,2013-01-29 23:33:00,
2013-01-29 23:39:00,46.1,44.5,29.12,North,0,15.0,15.0,94,0.00,CLR,,0.41,0.0,WeatherDisplay:10.37,2013-01-29 23:39:00,
2013-01-29 23:44:00,46.1,44.5,29.12,NNW,336,6.9,6.9,94,0.00,CLR,,0.41,0.0,WeatherDisplay:10.37,2013-01-29 23:44:00,
2013-01-29 23:49:00,46.0,44.4,29.12,NNW,335,8.1,8.1,94,0.00,CLR,,0.41,0.0,WeatherDisplay:10.37,2013-01-29 23:49:00,
2013-01-29 23:54:00,46.1,44.5,29.13,East,99,10.4,10.4,94,0.00,CLR,,0.41,0.0,WeatherDisplay:10.37,2013-01-29 23:54:00,
2013-01-29 23:59:00,46.1,44.7,29.13,NW,320,11.5,11.5,95,0.00,CLR,,0.41,0.0,WeatherDisplay:10.37,2013-01-29 23:59:00,